createdAt,value
2023-01-03T00:01:27.206Z,19.43
2023-01-03T00:04:51.988Z,14.33
2023-01-03T00:07:59.395Z,17.30
2023-01-03T00:11:12.925Z,21.87
2023-01-03T00:14:22.208Z,20.23
2023-01-03T00:17:29.367Z,17.53
2023-01-03T00:20:36.021Z,13.57
2023-01-03T00:23:42.116Z,14.60
2023-01-03T00:26:48.667Z,16.40
2023-01-03T00:29:56.705Z,12.90
2023-01-03T00:33:04.211Z,17.00
2023-01-03T00:36:11.606Z,21.33
2023-01-03T00:39:17.905Z,21.57
2023-01-03T00:42:24.149Z,19.60
2023-01-03T00:45:35.314Z,10.13
2023-01-03T00:48:42.177Z,16.23
2023-01-03T00:51:48.734Z,14.90
2023-01-03T00:54:55.005Z,15.13
2023-01-03T00:58:01.304Z,18.47
2023-01-03T01:01:10.616Z,23.17
2023-01-03T01:04:19.143Z,20.47
2023-01-03T01:07:25.491Z,22.93
2023-01-03T01:10:31.657Z,15.57
2023-01-03T01:13:38.597Z,18.17
2023-01-03T01:16:46.672Z,16.70
2023-01-03T01:19:52.884Z,15.57
2023-01-03T01:22:59.489Z,18.43
2023-01-03T01:26:06.365Z,14.03
2023-01-03T01:29:13.795Z,14.97
2023-01-03T01:32:21.754Z,16.77
2023-01-03T01:35:28.048Z,11.43
2023-01-03T01:38:34.589Z,14.20
2023-01-03T01:41:59.209Z,13.73
2023-01-03T01:45:07.611Z,20.00
2023-01-03T01:48:17.005Z,33.00
2023-01-03T01:51:25.670Z,14.33
2023-01-03T01:54:32.374Z,13.13
2023-01-03T01:57:39.633Z,14.37
2023-01-03T02:00:46.836Z,15.70
2023-01-03T02:04:01.532Z,11.03
2023-01-03T02:07:08.896Z,13.53
2023-01-03T02:10:15.228Z,15.37
2023-01-03T02:13:27.840Z,17.80
2023-01-03T02:16:51.272Z,18.87
2023-01-03T02:20:26.184Z,18.37
2023-01-03T02:23:57.907Z,13.97
2023-01-03T02:27:22.079Z,18.17
2023-01-03T02:30:38.719Z,16.73
2023-01-03T02:33:53.407Z,16.23
2023-01-03T02:37:10.775Z,15.60
2023-01-03T02:40:24.666Z,19.50
2023-01-03T02:43:39.614Z,14.83
2023-01-03T02:46:51.619Z,16.27
2023-01-03T02:50:02.760Z,13.30
2023-01-03T02:53:13.859Z,14.50
2023-01-03T02:56:26.122Z,13.63
2023-01-03T02:59:38.522Z,18.73
2023-01-03T03:02:53.430Z,12.23
2023-01-03T03:06:08.136Z,21.13
2023-01-03T03:09:14.647Z,19.63
2023-01-03T03:12:38.547Z,19.30
2023-01-03T03:15:53.624Z,19.70
2023-01-03T03:19:03.399Z,11.07
2023-01-03T03:22:33.145Z,19.73
2023-01-03T03:25:45.835Z,20.80
2023-01-03T03:28:57.596Z,19.37
2023-01-03T03:32:04.281Z,18.30
2023-01-03T03:35:15.835Z,18.57
2023-01-03T03:38:33.240Z,23.33
2023-01-03T03:42:01.650Z,13.90
2023-01-03T03:45:17.442Z,36.93
2023-01-03T03:48:30.012Z,20.10
2023-01-03T03:51:39.216Z,21.00
2023-01-03T03:54:50.988Z,19.93
2023-01-03T03:58:01.235Z,26.53
2023-01-03T04:01:09.070Z,35.97
2023-01-03T04:04:19.955Z,25.03
2023-01-03T04:07:27.763Z,22.50
2023-01-03T04:10:37.679Z,26.23
2023-01-03T04:13:44.678Z,23.40
2023-01-03T04:16:51.058Z,24.87
2023-01-03T04:19:57.206Z,30.97
2023-01-03T04:23:05.115Z,26.23
2023-01-03T04:26:11.578Z,27.73
2023-01-03T04:29:17.985Z,30.27
2023-01-03T04:32:24.058Z,30.53
2023-01-03T04:35:30.318Z,22.73
2023-01-03T04:38:37.808Z,17.40
2023-01-03T04:41:44.141Z,17.73
2023-01-03T04:44:49.468Z,23.37
2023-01-03T04:47:55.744Z,18.73
2023-01-03T04:51:02.890Z,19.53
2023-01-03T04:54:10.628Z,18.53
2023-01-03T04:57:17.459Z,15.43
2023-01-03T05:00:24.114Z,27.60
2023-01-03T05:03:30.855Z,45.93
2023-01-03T05:06:37.067Z,81.43
2023-01-03T05:09:45.170Z,88.60
2023-01-03T05:13:00.058Z,66.90
2023-01-03T05:16:07.503Z,52.43
2023-01-03T05:19:13.762Z,71.33
2023-01-03T05:22:37.773Z,60.43
2023-01-03T05:25:51.485Z,63.83
2023-01-03T05:28:57.804Z,47.97
2023-01-03T05:32:04.139Z,40.87
2023-01-03T05:35:10.998Z,28.00
2023-01-03T05:38:17.519Z,33.77
2023-01-03T05:41:42.404Z,24.07
2023-01-03T05:44:48.902Z,34.83
2023-01-03T05:47:58.116Z,27.23
2023-01-03T05:51:05.134Z,33.27
2023-01-03T05:54:14.128Z,33.83
2023-01-03T05:57:22.077Z,38.50
2023-01-03T06:00:28.446Z,55.57
2023-01-03T06:03:34.664Z,45.33
2023-01-03T06:06:40.580Z,47.57
2023-01-03T06:09:46.925Z,51.87
2023-01-03T06:12:54.424Z,53.67
2023-01-03T06:16:24.873Z,50.87
2023-01-03T06:19:31.939Z,98.87
2023-01-03T06:22:38.240Z,93.77
2023-01-03T06:25:44.619Z,71.30
2023-01-03T06:28:53.246Z,53.43
2023-01-03T06:32:03.541Z,59.73
2023-01-03T06:35:13.922Z,34.53
2023-01-03T06:38:20.460Z,28.20
2023-01-03T06:41:27.071Z,14.00
2023-01-03T06:44:34.689Z,14.53
2023-01-03T06:47:58.430Z,39.77
2023-01-03T06:51:22.476Z,49.93
2023-01-03T06:54:32.243Z,42.27
2023-01-03T06:57:38.495Z,30.47
2023-01-03T07:00:47.668Z,28.60
2023-01-03T07:03:53.846Z,46.77
2023-01-03T07:07:00.462Z,49.53
2023-01-03T07:10:07.098Z,47.93
2023-01-03T07:13:30.777Z,84.73
2023-01-03T07:16:40.657Z,74.30
2023-01-03T07:19:46.855Z,65.83
2023-01-03T07:22:53.913Z,74.63
2023-01-03T07:26:00.386Z,81.33
2023-01-03T07:29:08.832Z,65.73
2023-01-03T07:32:16.417Z,43.33
2023-01-03T07:35:22.922Z,45.50
2023-01-03T07:38:29.568Z,36.53
2023-01-03T07:42:04.971Z,44.67
2023-01-03T07:45:11.847Z,48.00
2023-01-03T07:48:19.603Z,45.33
2023-01-03T07:51:26.299Z,43.77
2023-01-03T07:54:32.446Z,27.30
2023-01-03T07:57:38.651Z,29.47
2023-01-03T08:00:44.825Z,40.47
2023-01-03T08:03:52.743Z,40.30
2023-01-03T08:06:58.894Z,47.67
2023-01-03T08:10:23.332Z,42.60
2023-01-03T08:13:29.797Z,20.63
2023-01-03T08:16:35.937Z,27.83
2023-01-03T08:19:45.663Z,17.87
2023-01-03T08:22:52.971Z,27.10
2023-01-03T08:26:03.707Z,23.47
2023-01-03T08:29:10.060Z,19.77
2023-01-03T08:32:17.628Z,25.80
2023-01-03T08:35:27.686Z,29.13
2023-01-03T08:38:38.653Z,31.30
2023-01-03T08:41:48.318Z,38.97
2023-01-03T08:44:59.674Z,32.03
2023-01-03T08:48:06.742Z,33.67
2023-01-03T08:51:14.593Z,34.00
2023-01-03T08:54:20.908Z,39.77
2023-01-03T08:57:26.996Z,35.23
2023-01-03T09:00:33.146Z,29.20
2023-01-03T09:03:39.640Z,32.07
2023-01-03T09:06:47.500Z,29.87
2023-01-03T09:09:53.945Z,35.23
2023-01-03T09:13:00.213Z,23.17
2023-01-03T09:16:08.910Z,21.27
2023-01-03T09:19:15.596Z,25.53
2023-01-03T09:22:23.326Z,24.17
2023-01-03T09:25:36.542Z,25.63
2023-01-03T09:28:43.585Z,16.07
2023-01-03T09:31:51.546Z,30.50
2023-01-03T09:34:58.038Z,31.93
2023-01-03T09:38:05.709Z,18.37
2023-01-03T09:41:26.104Z,28.90
2023-01-03T09:44:32.198Z,32.53
2023-01-03T09:47:40.355Z,29.20
2023-01-03T09:54:35.766Z,28.87
2023-01-03T09:57:59.536Z,29.07
2023-01-03T10:01:40.739Z,33.63
2023-01-03T10:05:11.140Z,21.97
2023-01-03T10:08:36.124Z,24.17
2023-01-03T10:11:52.118Z,21.43
2023-01-03T10:15:17.115Z,23.50
2023-01-03T10:18:40.236Z,17.63
2023-01-03T10:21:53.383Z,15.83
2023-01-03T10:25:11.108Z,35.30
2023-01-03T10:28:22.398Z,16.87
2023-01-03T10:31:41.155Z,26.57
2023-01-03T10:35:03.620Z,18.03
2023-01-03T10:38:09.959Z,17.83
2023-01-03T10:41:18.641Z,18.77
2023-01-03T10:44:28.107Z,11.93
2023-01-03T10:47:34.299Z,11.60
2023-01-03T10:50:40.545Z,14.00
2023-01-03T10:53:46.967Z,16.50
2023-01-03T10:56:53.331Z,36.30
2023-01-03T11:00:00.812Z,28.43
2023-01-03T11:03:16.976Z,24.80
2023-01-03T11:06:23.490Z,26.20
2023-01-03T11:09:36.778Z,20.27
2023-01-03T11:12:43.008Z,21.10
2023-01-03T11:15:55.314Z,18.07
2023-01-03T11:19:03.539Z,19.80
2023-01-03T11:22:18.252Z,18.27
2023-01-03T11:25:40.678Z,11.57
2023-01-03T11:29:02.448Z,7.33
2023-01-03T11:32:25.249Z,11.77
2023-01-03T11:35:41.317Z,15.10
2023-01-03T11:38:56.652Z,19.00
2023-01-03T11:42:20.982Z,6.90
2023-01-03T11:45:49.333Z,7.73
2023-01-03T11:49:10.523Z,15.27
2023-01-03T11:52:29.630Z,9.50
2023-01-03T11:55:50.806Z,14.47
2023-01-03T11:59:22.786Z,11.83
2023-01-03T12:02:57.372Z,15.43
2023-01-03T12:06:11.999Z,54.27
2023-01-03T12:09:26.057Z,65.00
2023-01-03T12:12:55.285Z,61.73
2023-01-03T12:16:09.121Z,29.50
2023-01-03T12:19:28.069Z,28.60
2023-01-03T12:22:39.171Z,28.23
2023-01-03T12:25:51.711Z,30.73
2023-01-03T12:29:05.257Z,21.30
2023-01-03T12:32:16.777Z,24.33
2023-01-03T12:35:31.910Z,16.93
2023-01-03T12:38:43.860Z,19.27
2023-01-03T12:41:57.916Z,21.10
2023-01-03T12:45:24.319Z,15.97
2023-01-03T12:48:58.442Z,18.30
2023-01-03T12:52:04.836Z,17.77
2023-01-03T12:55:21.057Z,18.87
2023-01-03T12:58:39.838Z,17.70
2023-01-03T13:01:53.856Z,19.30
2023-01-03T13:05:14.331Z,22.90
2023-01-03T13:08:31.483Z,20.67
2023-01-03T13:11:44.434Z,19.57
2023-01-03T13:14:55.891Z,22.80
2023-01-03T13:18:29.995Z,26.60
2023-01-03T13:22:02.233Z,16.83
2023-01-03T13:25:45.367Z,29.97
2023-01-03T13:28:54.265Z,26.30
2023-01-03T13:32:05.111Z,26.70
2023-01-03T13:35:33.790Z,26.60
2023-01-03T13:38:40.411Z,41.77
2023-01-03T13:41:55.134Z,33.20
2023-01-03T13:45:38.992Z,42.70
2023-01-03T13:48:57.546Z,62.30
2023-01-03T13:52:05.648Z,50.67
2023-01-03T13:55:36.815Z,36.43
2023-01-03T13:58:47.720Z,72.10
2023-01-03T14:02:04.235Z,81.63
2023-01-03T14:05:32.986Z,41.47
2023-01-03T14:09:03.133Z,41.67
2023-01-03T14:12:55.839Z,50.67
2023-01-03T14:16:19.012Z,49.07
2023-01-03T14:19:30.756Z,37.17
2023-01-03T14:22:44.296Z,49.80
2023-01-03T14:25:51.494Z,49.87
2023-01-03T14:28:57.972Z,62.17
2023-01-03T14:32:04.603Z,73.27
2023-01-03T14:35:36.054Z,73.30
2023-01-03T14:38:48.983Z,64.03
2023-01-03T14:41:57.864Z,68.00
2023-01-03T14:45:06.391Z,54.33
2023-01-03T14:48:18.788Z,137.77
2023-01-03T14:51:25.705Z,136.00
2023-01-03T14:54:33.803Z,106.37
2023-01-03T14:57:41.576Z,89.33
2023-01-03T15:00:50.361Z,82.10
2023-01-03T15:03:57.391Z,96.40
2023-01-03T15:07:13.074Z,113.37
2023-01-03T15:10:30.942Z,118.63
2023-01-03T15:13:43.168Z,136.37
2023-01-03T15:16:51.390Z,153.70
2023-01-03T15:19:58.177Z,142.17
2023-01-03T15:23:05.612Z,140.13
2023-01-03T15:26:24.442Z,123.20
2023-01-03T15:29:45.613Z,97.50
2023-01-03T15:32:55.992Z,66.57
2023-01-03T15:36:06.296Z,72.23
2023-01-03T15:39:19.627Z,80.53
2023-01-03T15:42:56.248Z,77.73
2023-01-03T15:46:06.915Z,72.53
2023-01-03T15:49:16.187Z,63.47
2023-01-03T15:52:22.648Z,40.93
2023-01-03T15:55:29.007Z,41.60
2023-01-03T15:58:38.007Z,36.53
2023-01-03T16:01:44.507Z,53.27
2023-01-03T16:04:51.473Z,97.43
2023-01-03T16:07:57.888Z,104.20
2023-01-03T16:11:06.781Z,146.23
2023-01-03T16:14:17.905Z,45.57
2023-01-03T16:17:28.333Z,49.00
2023-01-03T16:20:34.766Z,49.57
2023-01-03T16:23:41.550Z,49.03
2023-01-03T16:26:48.904Z,59.47
2023-01-03T16:29:56.499Z,46.53
2023-01-03T16:33:02.973Z,57.23
2023-01-03T16:36:24.012Z,52.90
2023-01-03T16:39:30.578Z,62.97
2023-01-03T16:42:36.901Z,53.53
2023-01-03T16:45:47.533Z,43.13
2023-01-03T16:48:56.717Z,48.07
2023-01-03T16:52:04.188Z,23.93
2023-01-03T16:55:17.506Z,49.70
2023-01-03T16:58:25.236Z,63.40
2023-01-03T17:01:33.167Z,103.37
2023-01-03T17:04:39.665Z,101.00
2023-01-03T17:07:48.018Z,73.57
2023-01-03T17:10:56.637Z,90.10
2023-01-03T17:14:04.385Z,77.50
2023-01-03T17:17:18.309Z,61.60
2023-01-03T17:20:25.404Z,47.47
2023-01-03T17:23:36.958Z,67.50
2023-01-03T17:26:43.711Z,92.27
2023-01-03T17:29:52.103Z,101.37
2023-01-03T17:33:00.144Z,99.70
2023-01-03T17:36:09.922Z,124.93
2023-01-03T17:39:16.823Z,99.90
2023-01-03T17:42:24.681Z,119.37
2023-01-03T17:46:00.106Z,95.13
2023-01-03T17:49:26.484Z,92.97
2023-01-03T17:52:36.034Z,97.00
2023-01-03T17:55:44.893Z,120.07
2023-01-03T17:58:56.227Z,97.70
2023-01-03T18:02:03.313Z,90.80
2023-01-03T18:05:18.619Z,107.40
2023-01-03T18:08:29.128Z,94.93
2023-01-03T18:11:35.639Z,46.70
2023-01-03T18:14:41.786Z,72.90
2023-01-03T18:17:48.677Z,66.30
2023-01-03T18:20:56.994Z,51.53
2023-01-03T18:24:06.307Z,83.87
2023-01-03T18:27:13.898Z,92.83
2023-01-03T18:30:20.420Z,117.27
2023-01-03T18:33:26.933Z,93.30
2023-01-03T18:36:40.149Z,69.33
2023-01-03T18:39:46.789Z,63.27
2023-01-03T18:43:11.382Z,70.40
2023-01-03T18:46:18.159Z,93.27
2023-01-03T18:49:24.753Z,58.43
2023-01-03T18:52:36.349Z,52.50
2023-01-03T18:55:43.297Z,52.50
2023-01-03T18:58:53.349Z,47.80
2023-01-03T19:02:03.048Z,58.93
2023-01-03T19:05:09.809Z,52.13
2023-01-03T19:08:19.461Z,62.87
2023-01-03T19:11:30.351Z,74.60
2023-01-03T19:14:43.387Z,67.37
2023-01-03T19:17:53.220Z,65.87
2023-01-03T19:20:59.663Z,79.23
2023-01-03T19:24:13.496Z,53.93
2023-01-03T19:27:23.711Z,38.77
2023-01-03T19:30:37.418Z,46.73
2023-01-03T19:33:44.198Z,43.37
2023-01-03T19:36:51.139Z,41.07
2023-01-03T19:39:58.919Z,46.17
2023-01-03T19:43:06.355Z,28.07
2023-01-03T19:46:16.755Z,82.47
2023-01-03T19:49:24.044Z,49.00
2023-01-03T19:52:30.457Z,35.43
2023-01-03T19:55:41.042Z,28.97
2023-01-03T19:58:47.922Z,34.63
2023-01-03T20:02:23.592Z,68.77
2023-01-03T20:05:23.509Z,81.53
2023-01-03T20:08:29.750Z,55.60
2023-01-03T20:11:37.559Z,64.33
2023-01-03T20:14:48.148Z,60.97
2023-01-03T20:17:54.659Z,35.80
2023-01-03T20:21:05.286Z,38.57
2023-01-03T20:24:21.651Z,28.30
2023-01-03T20:27:30.122Z,27.33
2023-01-03T20:30:36.537Z,45.17
2023-01-03T20:33:43.408Z,42.47
2023-01-03T20:36:50.254Z,37.37
2023-01-03T20:39:56.601Z,19.47
2023-01-03T20:43:05.621Z,26.57
2023-01-03T20:46:18.474Z,35.67
2023-01-03T20:49:27.007Z,36.47
2023-01-03T20:52:33.576Z,34.57
2023-01-03T20:55:39.719Z,30.17
2023-01-03T20:58:47.578Z,39.47
2023-01-03T21:01:54.204Z,44.20
2023-01-03T21:05:01.011Z,40.33
2023-01-03T21:08:25.940Z,82.00
2023-01-03T21:11:33.939Z,48.03
2023-01-03T21:14:41.348Z,38.07
2023-01-03T21:17:51.058Z,24.57
2023-01-03T21:20:57.611Z,24.40
2023-01-03T21:24:03.699Z,31.63
2023-01-03T21:27:09.780Z,30.60
2023-01-03T21:30:19.207Z,24.17
2023-01-03T21:33:25.646Z,39.60
2023-01-03T21:36:33.549Z,33.07
2023-01-03T21:39:39.934Z,36.70
2023-01-03T21:43:04.910Z,12.90
2023-01-03T21:46:17.072Z,19.90
2023-01-03T21:49:23.543Z,16.00
2023-01-03T21:52:29.902Z,21.43
2023-01-03T21:55:36.093Z,23.63
2023-01-03T21:58:42.703Z,18.33
2023-01-03T22:02:07.870Z,81.43
2023-01-03T22:05:14.321Z,124.93
2023-01-03T22:08:20.899Z,111.40
2023-01-03T22:11:28.599Z,160.17
2023-01-03T22:14:34.835Z,98.30
2023-01-03T22:17:42.900Z,59.30
2023-01-03T22:20:48.941Z,56.93
2023-01-03T22:23:56.129Z,48.57
2023-01-03T22:27:02.751Z,61.63
2023-01-03T22:30:12.797Z,67.10
2023-01-03T22:33:20.540Z,38.50
2023-01-03T22:36:26.549Z,32.33
2023-01-03T22:39:32.944Z,72.40
2023-01-03T22:42:39.460Z,33.87
2023-01-03T22:45:45.725Z,31.53
2023-01-03T22:48:53.865Z,18.53
2023-01-03T22:52:00.182Z,23.90
2023-01-03T22:55:07.533Z,108.20
2023-01-03T22:58:16.353Z,109.07
2023-01-03T23:01:27.989Z,24.57
2023-01-03T23:04:36.132Z,51.67
2023-01-03T23:07:44.880Z,29.23
2023-01-03T23:11:11.979Z,29.73
2023-01-03T23:14:19.709Z,24.13
2023-01-03T23:17:43.657Z,13.20
2023-01-03T23:20:51.580Z,11.17
2023-01-03T23:23:57.954Z,18.57
2023-01-03T23:27:04.316Z,19.73
2023-01-03T23:30:11.905Z,22.07
2023-01-03T23:33:18.227Z,35.13
2023-01-03T23:36:26.277Z,28.17
2023-01-03T23:39:32.561Z,25.93
2023-01-03T23:42:38.828Z,18.57
2023-01-03T23:45:45.087Z,13.03
2023-01-03T23:48:55.819Z,15.47
2023-01-03T23:52:03.642Z,19.80
2023-01-03T23:55:12.889Z,28.83
2023-01-03T23:58:19.630Z,16.43
